Detall de PIREP

Printer-friendly versionPDF version

[2011/04/25 10:37:00]
Flight IATA:CT1004
Pilot Number:042
Company ICAO:CAT
Aircraft Type:B753/E
PAX:200
Departing Airport: LFPG
Destination Airport: LEBL
Alternate Airport:LEPA
Online: VATSIM
Route:ERIXU UN860 ETAMO UN855 DEGOL UN855 PPG UP84 ALBER
Flight Level:F350
No Slew and time accel
No pause
Crash detect
Detect pilot in Cockpit between each 30 and 45 minutes
10:37 Zero fuel Weight: 202121 Lbs, Fuel Weight: 75544 Lbs
10:37 VATSIM:LFPG 251000Z 04009KT 320V080 CAVOK 20/08 Q1019 NOSIG
10:37 VATSIM:LEBL 251000Z 33006KT 280V030 9999 FEW018 19/11 Q1014 NOSIG
10:38 VOICE CATALONIAN/EASTER CHARTER
10:46 Parking Brakes off
10:56 Take-off
10:56 Take off Weight: 275981 Lbs
10:56 Wind: 062 @ 011 Knots Heading: 083
10:56 POS N48 59 49 E002 34 45
10:56 Gear Up: 176 Knots
10:56 Flaps:3 at 176 Knots
10:56 Flaps:2 at 172 Knots
10:57 Flaps:1 at 176 Knots
10:58 Flaps:0 at 201 Knots
11:11 Wind:153@024 Knots Heading: 174 Ground Speed: 404 Knots Altitude 29150 ft
11:25 TOC
11:25 Fuel Weight: 66567 Lb
11:26 Wind:137@019 Knots Heading: 157 Ground Speed: 439 Knots Altitude 35111 ft
11:41 Wind:175@015 Knots Heading: 179 Ground Speed: 441 Knots Altitude 35078 ft
11:52 TOD
11:52 Fuel Weight: 62447 Lb
11:56 Wind:209@011 Knots Heading: 180 Ground Speed: 379 Knots Altitude 26279 ft
12:06 Flaps:1 at 243 Knots
12:06 Flaps:0 at 243 Knots
12:10 Flaps:1 at 244 Knots
12:11 Wind:019@004 Knots Heading: 225 Ground Speed: 264 Knots Altitude 6433 ft
12:14 Flaps:2 at 173 Knots
12:14 Flaps:3 at 172 Knots
12:15 Flaps:4 at 169 Knots
12:16 Gear Down: 160 Knots
12:16 Flaps:5 at 161 Knots
12:17 Flaps:6 at 163 Knots
12:17 TouchDown:Rate -386 ft/min Speed: 148 Knots
12:18 VATSIM:LEBL 251200Z 18007KT 9999 FEW018 18/14 Q1013 NOSIG
12:18 Land
12:18 Wind:067@006 Knots
12:18 Heading: 246
12:18 Flight Duration: 01:22
12:18 Landing Weight: 262599 Lbs
12:18 POS N41 17 53 E002 04 52
12:20 Parking brakes on
12:20 Block to Block Duration: 01:34
12:20 Final Fuel: 60141 Lbls
12:20 Spent Fuel: 15403 Lbls
12:20 Flight Length: 414 NM
12:20 TOD Land Length: 128 NM

Exportar CSV

Powered by Drupal - Modified by Danger4k